Time;durP1;ratioP1;P1;durP2;ratioP2;P2;SDS_P1;SDS_P2;PMS_P1;PMS_P2;Temp;Humidity;BMP_temperature;BMP_pressure;BME280_temperature;BME280_humidity;BME280_pressure;Samples;Min_cycle;Max_cycle;Signal;HPM_P1;HPM_P2
2022/03/14 00:01:43;;;;;;;;;5.75;5.25;;;;;8.27;74.10;101565.41;4975725;28;45363;-43
2022/03/14 00:04:08;;;;;;;;;15.00;8.75;;;;;8.32;74.50;101570.38;4976175;28;45258;-41
2022/03/14 00:06:35;;;;;;;;;10.75;7.00;;;;;8.35;74.00;101571.00;4975528;28;47197;-43
2022/03/14 00:09:06;;;;;;;;;3.00;1.25;;;;;8.36;74.42;101574.50;4975506;28;45420;-45
2022/03/14 00:11:35;;;;;;;;;8.00;8.00;;;;;8.42;73.69;101587.31;4975730;28;45391;-47
2022/03/14 00:14:05;;;;;;;;;6.75;6.75;;;;;8.45;73.33;101585.31;4974856;28;45353;-44
2022/03/14 00:16:36;;;;;;;;;6.00;5.00;;;;;8.50;73.37;101592.91;4975497;28;46407;-43
2022/03/14 00:19:02;;;;;;;;;7.00;5.25;;;;;8.54;73.24;101599.69;4977027;28;45397;-51
2022/03/14 00:21:28;;;;;;;;;6.50;3.50;;;;;8.55;73.43;101596.06;4975846;28;45460;-47
2022/03/14 00:23:55;;;;;;;;;6.00;5.00;;;;;8.58;73.09;101601.16;4974779;28;45813;-48
2022/03/14 00:26:26;;;;;;;;;6.00;3.00;;;;;8.62;71.85;101612.41;4975618;28;46246;-49
2022/03/14 00:28:51;;;;;;;;;2.00;2.00;;;;;8.53;72.80;101600.66;4975469;28;45379;-48
2022/03/14 00:31:17;;;;;;;;;5.00;3.00;;;;;8.63;72.67;101625.53;4975863;28;45386;-46
2022/03/14 00:33:43;;;;;;;;;4.00;4.00;;;;;8.63;72.27;101624.69;4975684;28;45319;-43
2022/03/14 00:36:09;;;;;;;;;10.50;6.00;;;;;8.63;72.02;101633.47;4975544;28;46021;-47
2022/03/14 00:38:39;;;;;;;;;4.75;4.75;;;;;8.63;72.39;101641.44;4975522;28;45477;-48
2022/03/14 00:41:08;;;;;;;;;3.25;1.50;;;;;8.67;72.16;101642.06;4975588;28;45458;-41
2022/03/14 00:43:34;;;;;;;;;7.00;4.00;;;;;8.69;72.38;101642.81;4975372;28;45484;-46
2022/03/14 00:46:00;;;;;;;;;8.50;5.00;;;;;8.69;71.39;101646.31;4975131;28;45296;-44
2022/03/14 00:48:26;;;;;;;;;4.50;4.50;;;;;8.69;71.77;101650.78;4975367;28;45360;-49
2022/03/14 00:50:52;;;;;;;;;5.00;3.00;;;;;8.69;72.21;101659.59;4975432;28;45344;-48
2022/03/14 00:53:17;;;;;;;;;4.50;4.50;;;;;8.70;72.16;101665.72;4975455;28;45463;-48
2022/03/14 00:55:43;;;;;;;;;4.25;2.25;;;;;8.69;72.15;101658.75;4974997;28;45492;-48
2022/03/14 00:58:09;;;;;;;;;4.50;3.50;;;;;8.69;71.76;101669.34;4975295;28;45327;-49
2022/03/14 01:00:34;;;;;;;;;6.25;3.50;;;;;8.68;72.53;101673.81;4975369;28;45349;-48
2022/03/14 01:03:00;;;;;;;;;8.00;5.75;;;;;8.68;71.54;101681.75;4975326;28;45383;-47
2022/03/14 01:05:26;;;;;;;;;5.75;5.75;;;;;8.60;71.94;101676.16;4975076;28;46336;-44
2022/03/14 01:07:52;;;;;;;;;2.00;2.00;;;;;8.67;71.24;101695.97;4974827;28;45653;-44
2022/03/14 01:10:17;;;;;;;;;2.50;2.50;;;;;8.69;71.77;101695.88;4975201;28;45305;-42
2022/03/14 01:12:43;;;;;;;;;2.00;2.00;;;;;8.69;71.76;101706.47;4975308;28;45469;-48
2022/03/14 01:15:09;;;;;;;;;3.50;2.00;;;;;8.68;71.74;101710.94;4974967;28;46025;-48
2022/03/14 01:17:35;;;;;;;;;5.25;2.00;;;;;8.64;70.67;101706.81;4974875;28;45413;-45
2022/03/14 01:20:02;;;;;;;;;5.00;3.00;;;;;8.59;71.19;101719.53;4974931;28;45525;-46
2022/03/14 01:22:27;;;;;;;;;6.00;3.00;;;;;8.58;72.01;101727.63;4975131;28;45284;-45
2022/03/14 01:24:53;;;;;;;;;3.00;2.33;;;;;8.56;70.84;101725.09;4974762;28;46013;-43
2022/03/14 01:27:18;;;;;;;;;4.50;4.50;;;;;8.54;71.59;101731.44;4974706;28;45316;-47
2022/03/14 01:29:44;;;;;;;;;5.00;5.00;;;;;8.52;72.58;101731.56;4974647;28;45211;-48
2022/03/14 01:32:11;;;;;;;;;5.67;2.33;;;;;8.58;71.44;101733.75;4975353;28;45257;-45
2022/03/14 01:34:37;;;;;;;;;7.00;3.00;;;;;8.57;71.44;101732.06;4974724;28;45328;-48
2022/03/14 01:37:03;;;;;;;;;3.67;1.67;;;;;8.55;72.13;101741.09;4974447;28;45460;-46
2022/03/14 01:39:28;;;;;;;;;3.00;3.00;;;;;8.58;72.39;101749.69;4974939;28;45343;-47
2022/03/14 01:41:55;;;;;;;;;4.25;2.00;;;;;8.61;71.36;101746.81;4974696;28;45331;-45
2022/03/14 01:44:21;;;;;;;;;8.00;2.25;;;;;8.61;71.27;101748.63;4976082;28;45398;-49
2022/03/14 01:46:47;;;;;;;;;4.50;4.50;;;;;8.64;71.42;101753.72;4974673;28;45352;-49
2022/03/14 01:49:13;;;;;;;;;2.25;2.25;;;;;8.59;70.64;101746.06;4974779;28;45236;-45
2022/03/14 01:51:40;;;;;;;;;5.00;2.00;;;;;8.62;72.15;101747.66;4974816;28;45558;-45
2022/03/14 01:54:07;;;;;;;;;3.50;2.00;;;;;8.48;71.36;101732.75;4974325;28;46375;-46
2022/03/14 01:56:34;;;;;;;;;4.33;4.00;;;;;8.59;71.80;101758.47;4974254;28;45358;-46
2022/03/14 01:59:00;;;;;;;;;2.33;1.33;;;;;8.60;72.16;101763.69;4974502;28;45445;-47
2022/03/14 02:01:26;;;;;;;;;6.75;3.00;;;;;8.60;71.49;101773.47;4974814;28;45307;-48
2022/03/14 02:03:51;;;;;;;;;3.50;3.50;;;;;8.57;71.81;101765.72;4974166;28;46284;-44
2022/03/14 02:06:19;;;;;;;;;5.25;2.00;;;;;8.52;71.20;101766.03;4974593;28;45383;-48
2022/03/14 02:08:44;;;;;;;;;6.50;2.00;;;;;8.47;71.53;101762.88;4974616;28;45400;-46
2022/03/14 02:11:10;;;;;;;;;6.00;1.33;;;;;8.37;72.03;101757.34;4974604;28;45301;-47
2022/03/14 02:13:36;;;;;;;;;2.00;2.00;;;;;8.35;72.07;101764.53;4975577;28;46074;-45
2022/03/14 02:16:01;;;;;;;;;2.00;2.00;;;;;8.28;71.85;101757.97;4973970;28;45402;-43
2022/03/14 02:18:26;;;;;;;;;6.75;2.75;;;;;8.22;71.74;101751.28;4974510;28;45360;-42
2022/03/14 02:20:52;;;;;;;;;1.75;1.75;;;;;8.20;72.54;101763.78;4974513;28;45484;-48
2022/03/14 02:23:18;;;;;;;;;6.00;2.00;;;;;8.15;72.67;101760.63;4974144;28;46449;-47
2022/03/14 02:26:01;;;;;;;;;5.75;2.00;;;;;8.11;72.27;101764.44;4974150;28;45494;-44
2022/03/14 02:28:27;;;;;;;;;2.25;2.25;;;;;8.10;72.73;101765.38;4974235;28;45322;-46
2022/03/14 02:30:53;;;;;;;;;5.75;2.00;;;;;8.09;73.14;101771.66;4974530;28;45390;-48
2022/03/14 02:33:20;;;;;;;;;8.50;5.00;;;;;7.97;72.79;101760.09;4973936;28;45332;-43
2022/03/14 02:35:46;;;;;;;;;5.25;2.00;;;;;8.06;73.32;101769.22;4974029;28;45439;-46
2022/03/14 02:38:14;;;;;;;;;4.75;4.75;;;;;8.04;72.73;101767.59;4975383;28;45212;-46
2022/03/14 02:40:41;;;;;;;;;6.50;4.75;;;;;8.02;72.94;101773.03;4977178;28;45685;-47
2022/03/14 02:43:07;;;;;;;;;4.00;3.00;;;;;8.00;73.18;101777.56;4976887;28;45413;-49
2022/03/14 02:45:33;;;;;;;;;5.75;3.50;;;;;7.97;73.16;101775.13;4976577;28;45402;-43
2022/03/14 02:47:59;;;;;;;;;2.50;2.25;;;;;7.97;73.68;101793.69;4976941;28;45322;-45
2022/03/14 02:50:26;;;;;;;;;3.50;2.50;;;;;7.81;73.58;101780.63;4977169;28;45379;-44
2022/03/14 02:52:52;;;;;;;;;10.00;6.00;;;;;7.87;73.33;101803.19;4977657;28;45371;-49
2022/03/14 02:55:21;;;;;;;;;3.50;2.75;;;;;7.86;73.68;101810.28;4976967;28;45290;-43
2022/03/14 02:57:46;;;;;;;;;3.75;3.25;;;;;7.85;74.55;101811.25;4976943;28;45389;-45
2022/03/14 03:00:13;;;;;;;;;4.50;2.00;;;;;7.85;73.41;101813.06;4976765;28;45213;-45
2022/03/14 03:02:42;;;;;;;;;5.50;4.00;;;;;7.85;74.30;101828.94;4976700;28;46383;-42
2022/03/14 03:05:08;;;;;;;;;9.75;5.00;;;;;7.82;74.09;101824.69;4976751;28;45419;-47
2022/03/14 03:07:36;;;;;;;;;5.25;2.50;;;;;7.80;73.47;101833.72;4976867;28;45267;-46
2022/03/14 03:10:04;;;;;;;;;10.00;4.00;;;;;7.78;73.78;101831.16;4977009;28;45382;-49
2022/03/14 03:12:32;;;;;;;;;6.25;3.25;;;;;7.77;74.11;101839.22;4976388;28;46973;-49
2022/03/14 03:14:58;;;;;;;;;8.00;4.50;;;;;7.41;73.81;101798.28;4976682;28;45374;-46
2022/03/14 03:17:24;;;;;;;;;8.75;5.00;;;;;7.71;73.83;101854.56;4976576;28;45184;-42
2022/03/14 03:19:49;;;;;;;;;7.25;1.50;;;;;7.73;73.86;101865.03;4976789;28;45326;-47
2022/03/14 03:22:14;;;;;;;;;8.25;5.50;;;;;7.75;74.54;101866.66;4976471;28;46151;-48
2022/03/14 03:24:40;;;;;;;;;5.75;1.50;;;;;7.73;74.54;101873.84;4976275;28;45401;-47
2022/03/14 03:27:05;;;;;;;;;3.50;3.25;;;;;7.77;73.67;101876.28;4976398;28;45292;-44
2022/03/14 03:29:30;;;;;;;;;5.75;2.75;;;;;7.74;73.68;101887.91;4976608;28;45349;-46
2022/03/14 03:31:56;;;;;;;;;8.50;4.00;;;;;7.71;73.65;101878.41;4976029;28;46311;-42
2022/03/14 03:34:22;;;;;;;;;5.25;5.25;;;;;7.71;74.25;101889.00;4976069;28;45406;-45
2022/03/14 03:36:47;;;;;;;;;6.00;4.25;;;;;7.68;74.06;101885.69;4976195;28;45466;-45
2022/03/14 03:39:12;;;;;;;;;2.00;2.00;;;;;7.67;73.55;101884.00;4976188;28;45484;-48
2022/03/14 03:41:40;;;;;;;;;11.25;3.75;;;;;7.66;73.99;101903.47;4976483;28;46217;-41
2022/03/14 03:44:07;;;;;;;;;5.75;2.00;;;;;7.56;74.35;101892.63;4976082;28;45449;-50
2022/03/14 03:46:33;;;;;;;;;5.25;2.00;;;;;7.61;73.58;101906.41;4975955;28;45363;-46
2022/03/14 03:48:58;;;;;;;;;3.00;3.00;;;;;7.60;73.60;101909.16;4976374;28;45359;-45
2022/03/14 03:51:24;;;;;;;;;5.75;4.00;;;;;7.56;74.07;101907.66;4975752;28;46311;-47
2022/03/14 03:53:49;;;;;;;;;2.00;2.00;;;;;7.53;74.13;101902.56;4976185;28;45225;-45
2022/03/14 03:56:14;;;;;;;;;4.00;4.00;;;;;7.54;73.69;101915.69;4975871;28;45322;-46
2022/03/14 03:58:41;;;;;;;;;4.00;4.00;;;;;7.45;73.17;101914.47;4976499;28;45411;-46
2022/03/14 04:01:06;;;;;;;;;9.50;3.00;;;;;7.51;73.90;101929.16;4975874;28;47223;-42
2022/03/14 04:03:32;;;;;;;;;1.00;1.00;;;;;7.48;73.52;101932.81;4975997;28;45339;-41
2022/03/14 04:05:58;;;;;;;;;4.25;2.50;;;;;7.45;73.57;101942.75;4976045;28;45350;-46
2022/03/14 04:08:26;;;;;;;;;6.00;4.75;;;;;7.39;73.67;101944.00;4976162;28;45304;-45
2022/03/14 04:10:54;;;;;;;;;5.75;4.75;;;;;7.41;73.84;101949.19;4975524;28;45360;-46
2022/03/14 04:13:21;;;;;;;;;5.25;4.75;;;;;7.40;73.77;101958.09;4975950;28;45461;-45
2022/03/14 04:15:51;;;;;;;;;9.00;5.75;;;;;7.39;74.12;101956.38;4975968;28;45185;-48
2022/03/14 04:18:18;;;;;;;;;5.50;4.00;;;;;7.28;73.97;101945.63;4976053;28;45338;-47
2022/03/14 04:20:47;;;;;;;;;6.50;4.50;;;;;7.33;73.47;101952.34;4976877;28;45618;-46
2022/03/14 04:23:13;;;;;;;;;1.75;1.50;;;;;7.31;73.80;101956.03;4975593;28;45419;-44
2022/03/14 04:25:39;;;;;;;;;5.75;4.75;;;;;7.32;73.54;101968.31;4975514;28;45350;-48
2022/03/14 04:28:04;;;;;;;;;10.00;5.00;;;;;7.33;73.33;101968.22;4975894;28;45436;-49
2022/03/14 04:30:30;;;;;;;;;4.25;2.50;;;;;7.33;73.61;101965.56;4975306;28;45967;-45
2022/03/14 04:32:55;;;;;;;;;8.00;5.25;;;;;7.34;73.38;101964.63;4975750;28;45357;-43
2022/03/14 04:35:21;;;;;;;;;6.25;5.75;;;;;7.34;73.42;101982.31;4975726;28;45219;-45
2022/03/14 04:37:46;;;;;;;;;3.75;3.25;;;;;7.31;73.16;101985.97;4974499;28;45468;-46
2022/03/14 04:40:14;;;;;;;;;4.00;4.00;;;;;7.28;73.10;101985.31;4975268;28;46098;-47
2022/03/14 04:42:40;;;;;;;;;6.00;4.50;;;;;7.29;72.86;101994.94;4975251;28;45322;-45
2022/03/14 04:45:06;;;;;;;;;5.25;3.50;;;;;7.29;72.87;102006.41;4975560;28;45913;-47
2022/03/14 04:47:31;;;;;;;;;7.00;5.00;;;;;7.27;72.66;102008.28;4975611;28;45405;-43
2022/03/14 04:49:57;;;;;;;;;8.25;5.50;;;;;7.12;72.50;101999.50;4975186;28;46880;-45
2022/03/14 04:52:23;;;;;;;;;4.00;4.00;;;;;7.19;73.61;102011.41;4975479;28;45304;-42
2022/03/14 04:54:48;;;;;;;;;4.25;3.50;;;;;7.19;73.46;102013.19;4975310;28;45389;-47
2022/03/14 04:57:13;;;;;;;;;9.00;4.00;;;;;7.14;73.85;102016.13;4975642;28;45294;-45
2022/03/14 04:59:39;;;;;;;;;5.00;5.00;;;;;7.09;73.35;102023.50;4975449;28;45970;-42
2022/03/14 05:02:06;;;;;;;;;5.25;5.25;;;;;7.09;73.41;102018.22;4975040;28;45318;-46
2022/03/14 05:04:32;;;;;;;;;10.00;6.50;;;;;7.01;73.49;102015.19;4975405;28;45349;-43
2022/03/14 05:06:58;;;;;;;;;6.50;4.50;;;;;7.03;74.02;102023.84;4975633;28;45457;-43
2022/03/14 05:09:23;;;;;;;;;8.75;5.00;;;;;7.00;74.24;102027.56;4975643;28;45291;-45
2022/03/14 05:11:48;;;;;;;;;12.00;7.50;;;;;6.99;74.17;102031.16;4976119;28;45399;-43
2022/03/14 05:14:15;;;;;;;;;5.50;5.50;;;;;7.00;73.66;102024.91;4975427;28;45396;-46
2022/03/14 05:16:41;;;;;;;;;4.00;3.00;;;;;6.94;73.88;102019.97;4975394;28;45406;-49
2022/03/14 05:19:06;;;;;;;;;5.50;5.50;;;;;6.98;74.03;102044.47;4975147;28;45940;-48
2022/03/14 05:21:33;;;;;;;;;8.00;4.75;;;;;6.89;74.32;102037.06;4975146;28;45391;-46
2022/03/14 05:23:58;;;;;;;;;8.50;4.50;;;;;6.95;74.21;102055.22;4975354;28;45370;-48
2022/03/14 05:26:24;;;;;;;;;7.50;4.75;;;;;6.96;73.96;102049.00;4975460;28;45314;-44
2022/03/14 05:28:49;;;;;;;;;6.50;4.00;;;;;6.94;73.86;102049.06;4974907;28;45382;-43
2022/03/14 05:31:16;;;;;;;;;9.75;6.00;;;;;6.92;73.61;102060.72;4975022;28;45426;-44
2022/03/14 05:33:41;;;;;;;;;8.00;5.75;;;;;6.91;73.93;102058.97;4975181;28;45353;-43
2022/03/14 05:36:06;;;;;;;;;8.50;7.25;;;;;6.89;74.08;102048.50;4975237;28;45425;-43
2022/03/14 05:38:32;;;;;;;;;6.00;4.50;;;;;6.89;73.36;102059.09;4974837;28;46129;-43
2022/03/14 05:40:58;;;;;;;;;7.00;4.25;;;;;6.85;73.63;102051.41;4974891;28;45740;-42
2022/03/14 05:43:25;;;;;;;;;16.50;7.50;;;;;6.89;74.31;102067.00;4974892;28;45259;-41
2022/03/14 05:45:51;;;;;;;;;7.50;5.25;;;;;6.90;73.67;102073.16;4974763;28;45442;-43
2022/03/14 05:48:17;;;;;;;;;7.75;6.25;;;;;6.86;73.63;102072.47;4974591;28;47187;-42
2022/03/14 05:50:42;;;;;;;;;15.50;8.00;;;;;6.91;73.54;102082.78;4974382;28;45459;-44
2022/03/14 05:53:08;;;;;;;;;7.50;5.25;;;;;6.90;73.64;102081.09;4975038;28;45272;-44
2022/03/14 05:55:33;;;;;;;;;8.00;5.00;;;;;6.88;73.83;102069.75;4974990;28;45383;-44
2022/03/14 05:57:58;;;;;;;;;8.50;5.75;;;;;6.89;73.33;102079.41;4974918;28;45347;-42
2022/03/14 06:00:24;;;;;;;;;8.75;8.00;;;;;6.89;73.60;102088.19;4974671;28;45466;-42
2022/03/14 06:02:52;;;;;;;;;10.00;5.25;;;;;6.92;73.78;102098.59;4974753;28;45478;-42
2022/03/14 06:05:18;;;;;;;;;5.00;4.00;;;;;6.80;73.69;102072.00;4975018;28;45239;-42
2022/03/14 06:07:44;;;;;;;;;8.50;7.50;;;;;6.90;73.31;102095.16;4974136;28;46073;-42
2022/03/14 06:10:10;;;;;;;;;9.25;5.75;;;;;6.90;73.64;102103.09;4974236;28;45197;-43
2022/03/14 06:12:35;;;;;;;;;10.75;6.00;;;;;6.83;73.65;102093.84;4972894;28;45346;-42
2022/03/14 06:15:03;;;;;;;;;7.25;5.00;;;;;6.91;73.61;102111.88;4974457;28;45466;-42
2022/03/14 06:17:28;;;;;;;;;12.75;6.50;;;;;6.93;73.58;102107.38;4973648;28;45425;-41
2022/03/14 06:19:54;;;;;;;;;11.50;7.50;;;;;6.95;73.42;102102.81;4974058;28;45395;-42
2022/03/14 06:22:21;;;;;;;;;10.75;7.00;;;;;6.93;73.32;102102.09;4974518;28;45446;-43
2022/03/14 06:24:48;;;;;;;;;6.25;4.50;;;;;6.96;72.60;102109.84;4974297;28;45370;-44
2022/03/14 06:27:19;;;;;;;;;13.00;9.25;;;;;6.84;73.34;102094.69;4972428;28;48154;-42
2022/03/14 06:29:45;;;;;;;;;11.25;7.50;;;;;6.93;73.14;102113.50;4974043;28;45402;-43
2022/03/14 06:32:11;;;;;;;;;10.25;8.50;;;;;6.95;73.54;102129.28;4973950;28;45295;-43
2022/03/14 06:34:40;;;;;;;;;11.00;8.25;;;;;6.92;73.46;102132.97;4974355;28;45296;-43
2022/03/14 06:37:07;;;;;;;;;7.75;5.50;;;;;6.93;73.43;102141.75;4973937;28;45427;-42
2022/03/14 06:39:37;;;;;;;;;10.00;10.00;;;;;6.94;73.52;102146.94;4973744;28;45387;-42
2022/03/14 06:42:05;;;;;;;;;14.50;10.00;;;;;6.88;73.25;102143.81;4973837;28;45394;-42
2022/03/14 06:44:31;;;;;;;;;11.00;6.25;;;;;7.00;73.22;102161.66;4973808;28;45349;-43
2022/03/14 06:46:56;;;;;;;;;14.75;5.50;;;;;7.01;73.45;102165.97;4973753;28;46308;-43
2022/03/14 06:49:21;;;;;;;;;12.50;7.50;;;;;7.02;73.03;102178.25;4973832;28;45325;-43
2022/03/14 06:51:47;;;;;;;;;9.25;8.00;;;;;7.04;73.15;102184.34;4973966;28;45478;-42
2022/03/14 06:54:14;;;;;;;;;7.75;7.00;;;;;7.06;73.34;102187.72;4974083;28;45398;-42
2022/03/14 06:56:41;;;;;;;;;11.50;8.00;;;;;7.12;72.91;102197.09;4973440;28;46175;-42
2022/03/14 06:59:07;;;;;;;;;9.75;9.25;;;;;7.15;72.97;102211.00;4973537;28;45411;-43
2022/03/14 07:01:32;;;;;;;;;13.00;9.00;;;;;7.19;72.60;102207.25;4973689;28;45295;-44
2022/03/14 07:03:57;;;;;;;;;14.50;8.00;;;;;7.24;72.50;102209.63;4973890;28;45269;-43
2022/03/14 07:06:23;;;;;;;;;12.25;6.50;;;;;7.28;72.31;102215.59;4973329;28;45973;-42
2022/03/14 07:08:48;;;;;;;;;8.75;8.75;;;;;7.29;72.09;102220.81;4973715;28;45324;-42
2022/03/14 07:11:13;;;;;;;;;13.25;10.50;;;;;7.31;71.22;102226.00;4973301;28;45405;-42
2022/03/14 07:13:39;;;;;;;;;13.50;8.75;;;;;7.29;72.24;102223.47;4973763;28;45426;-42
2022/03/14 07:16:04;;;;;;;;;14.75;11.50;;;;;7.29;71.86;102227.88;4973176;28;46117;-42
2022/03/14 07:18:30;;;;;;;;;11.75;9.75;;;;;7.31;72.04;102236.59;4973131;28;45334;-42
2022/03/14 07:20:56;;;;;;;;;15.75;12.00;;;;;7.25;71.41;102241.31;4973447;28;45372;-43
2022/03/14 07:23:22;;;;;;;;;13.75;9.00;;;;;7.33;71.41;102258.53;4973938;28;45403;-43
2022/03/14 07:25:49;;;;;;;;;8.00;8.00;;;;;7.34;71.72;102245.22;4976534;28;45424;-42
2022/03/14 07:28:15;;;;;;;;;11.50;9.00;;;;;7.40;71.31;102246.66;4976222;28;45343;-42
2022/03/14 07:30:41;;;;;;;;;10.75;10.75;;;;;7.46;71.64;102252.47;4975320;28;45363;-41
2022/03/14 07:33:07;;;;;;;;;12.00;9.00;;;;;7.61;70.82;102252.47;4976590;28;45340;-43
2022/03/14 07:35:35;;;;;;;;;22.25;13.00;;;;;7.79;71.08;102255.84;4976057;28;45437;-42
2022/03/14 07:38:00;;;;;;;;;13.00;8.00;;;;;7.91;69.99;102253.28;4976311;28;45315;-43
2022/03/14 07:40:26;;;;;;;;;8.75;8.75;;;;;7.98;69.95;102243.19;4976189;28;45374;-42
2022/03/14 07:42:53;;;;;;;;;8.25;7.50;;;;;8.15;69.29;102271.31;4976355;28;45550;-42
2022/03/14 07:45:21;;;;;;;;;14.75;9.75;;;;;8.22;68.96;102278.81;4975956;28;46526;-43
2022/03/14 07:47:47;;;;;;;;;15.25;13.00;;;;;8.12;68.88;102267.03;4975919;28;45228;-42
2022/03/14 07:50:15;;;;;;;;;14.25;12.75;;;;;8.17;69.22;102290.63;4976276;28;45355;-42
2022/03/14 07:52:42;;;;;;;;;11.50;10.50;;;;;8.02;68.89;102279.16;4976266;28;45272;-43
2022/03/14 07:55:08;;;;;;;;;13.75;11.50;;;;;8.04;68.87;102285.22;4976147;28;45533;-45
2022/03/14 07:57:35;;;;;;;;;9.00;9.00;;;;;8.10;69.51;102307.84;4976114;28;45326;-43
2022/03/14 08:00:03;;;;;;;;;13.50;11.00;;;;;8.02;69.84;102307.47;4976086;28;45342;-45
2022/03/14 08:02:28;;;;;;;;;19.50;13.00;;;;;8.02;69.42;102315.41;4976173;28;45348;-44
2022/03/14 08:04:54;;;;;;;;;15.00;10.50;;;;;7.96;70.06;102301.59;4975822;28;45350;-49
2022/03/14 08:07:20;;;;;;;;;12.00;7.75;;;;;8.02;69.91;102310.13;4975932;28;45451;-46
2022/03/14 08:09:48;;;;;;;;;10.00;9.00;;;;;8.12;69.32;102320.06;4976148;28;45378;-45
2022/03/14 08:12:13;;;;;;;;;11.00;8.50;;;;;8.10;69.47;102316.66;4976110;28;45313;-47
2022/03/14 08:14:38;;;;;;;;;15.50;10.00;;;;;8.16;69.75;102308.31;4975624;28;46123;-48
2022/03/14 08:17:04;;;;;;;;;9.50;9.50;;;;;8.21;69.42;102310.69;4975586;28;45513;-45
2022/03/14 08:19:29;;;;;;;;;16.75;10.00;;;;;8.26;69.30;102308.66;4976101;28;45428;-45
2022/03/14 08:21:56;;;;;;;;;14.50;9.50;;;;;8.34;69.81;102313.44;4975805;28;45544;-48
2022/03/14 08:24:22;;;;;;;;;9.25;9.00;;;;;8.39;69.43;102296.38;4975867;28;47103;-48
2022/03/14 08:26:48;;;;;;;;;9.75;9.50;;;;;8.59;68.47;102318.97;4975617;28;45587;-46
2022/03/14 08:29:13;;;;;;;;;16.25;13.50;;;;;8.73;68.82;102326.94;4975807;28;45514;-46
2022/03/14 08:31:38;;;;;;;;;17.50;15.00;;;;;9.00;68.06;102332.31;4975975;28;45392;-44
2022/03/14 08:34:06;;;;;;;;;16.25;15.50;;;;;10.47;64.83;102325.16;4975694;28;47300;-46
2022/03/14 08:36:32;;;;;;;;;11.75;9.25;;;;;11.50;61.80;102331.06;4974728;28;45314;-45
2022/03/14 08:38:58;;;;;;;;;15.00;12.00;;;;;12.10;59.63;102330.13;4975418;28;45285;-44
2022/03/14 08:41:23;;;;;;;;;14.33;11.00;;;;;12.63;58.35;102330.41;4976024;28;45351;-43
2022/03/14 08:43:48;;;;;;;;;9.67;9.33;;;;;13.11;57.23;102329.28;4975050;28;46800;-43
2022/03/14 08:46:18;;;;;;;;;11.33;10.67;;;;;13.66;55.96;102330.97;4974489;28;45800;-46
2022/03/14 08:48:44;;;;;;;;;9.33;7.00;;;;;14.22;53.95;102317.28;4975591;28;45442;-47
2022/03/14 08:51:09;;;;;;;;;16.00;10.00;;;;;14.92;52.00;102318.31;4975690;28;45690;-46
2022/03/14 08:53:35;;;;;;;;;10.33;8.00;;;;;15.86;51.00;102334.81;4975478;28;45963;-47
2022/03/14 08:56:04;;;;;;;;;16.00;12.00;;;;;17.18;49.30;102339.19;4975334;28;45348;-46
2022/03/14 08:58:29;;;;;;;;;11.33;10.00;;;;;18.56;44.86;102340.53;4975477;28;45306;-47
2022/03/14 09:00:59;;;;;;;;;11.00;9.67;;;;;19.82;42.09;102344.13;4975433;28;45478;-47
2022/03/14 09:03:27;;;;;;;;;10.00;9.67;;;;;20.66;39.75;102330.16;4975326;28;46187;-43
2022/03/14 09:05:56;;;;;;;;;13.00;9.00;;;;;21.32;38.46;102346.09;4975166;28;45421;-45
2022/03/14 09:08:26;;;;;;;;;11.00;9.67;;;;;21.71;37.85;102337.06;4975589;28;45470;-47
2022/03/14 09:10:53;;;;;;;;;15.00;11.67;;;;;22.31;36.71;102347.03;4975641;28;45996;-49
2022/03/14 09:13:20;;;;;;;;;9.00;9.00;;;;;22.90;40.55;102349.75;4974779;28;45939;-50
2022/03/14 09:15:47;;;;;;;;;10.00;9.00;;;;;23.26;35.99;102346.19;4975230;28;45393;-44
2022/03/14 09:18:14;;;;;;;;;8.00;7.67;;;;;23.46;34.37;102343.72;4975193;28;45438;-45
2022/03/14 09:20:39;;;;;;;;;10.00;8.00;;;;;23.77;33.65;102344.28;4975401;28;45339;-47
2022/03/14 09:23:06;;;;;;;;;12.75;8.25;;;;;24.25;32.70;102347.16;4975066;28;45497;-47
2022/03/14 09:25:32;;;;;;;;;9.25;8.75;;;;;24.56;31.49;102352.19;4974901;28;45330;-46
2022/03/14 09:27:58;;;;;;;;;12.75;8.50;;;;;24.98;32.32;102353.03;4975022;28;45697;-45
2022/03/14 09:30:24;;;;;;;;;11.00;11.00;;;;;25.38;30.26;102362.19;4975105;28;45362;-46
2022/03/14 09:32:51;;;;;;;;;11.50;8.25;;;;;25.58;30.12;102350.50;4974960;28;46319;-49
2022/03/14 09:35:18;;;;;;;;;10.75;10.00;;;;;25.90;31.85;102359.78;4974840;28;45257;-46
2022/03/14 09:37:44;;;;;;;;;8.75;8.00;;;;;25.91;29.88;102347.81;4974933;28;45266;-45
2022/03/14 09:40:13;;;;;;;;;12.25;7.75;;;;;26.28;29.47;102356.41;4975120;28;45345;-46
2022/03/14 09:42:44;;;;;;;;;12.75;9.25;;;;;26.63;31.51;102365.16;4974673;28;46081;-47
2022/03/14 09:45:14;;;;;;;;;7.40;7.40;;;;;26.80;28.57;102360.94;4974409;28;45492;-47
2022/03/14 09:47:45;;;;;;;;;14.00;11.20;;;;;26.91;28.07;102353.94;4975096;28;45335;-46
2022/03/14 09:50:13;;;;;;;;;9.50;8.00;;;;;26.92;28.12;102362.97;4977106;28;45508;-46
2022/03/14 09:52:41;;;;;;;;;9.25;6.50;;;;;27.04;27.47;102366.69;4979968;28;46168;-43
2022/03/14 09:55:08;;;;;;;;;9.60;8.40;;;;;27.12;27.47;102374.69;4976831;28;45281;-47
2022/03/14 09:57:36;;;;;;;;;11.40;7.00;;;;;27.33;27.45;102368.91;4975170;28;45417;-49
2022/03/14 10:00:03;;;;;;;;;8.40;7.00;;;;;27.13;27.13;102353.66;4979810;28;45452;-48
2022/03/14 10:02:29;;;;;;;;;7.40;6.80;;;;;27.22;27.25;102355.09;4980642;28;46123;-45
2022/03/14 10:04:54;;;;;;;;;8.00;8.00;;;;;26.60;28.52;102352.81;4975473;28;45394;-44
2022/03/14 10:07:21;;;;;;;;;12.50;12.00;;;;;25.71;29.08;102364.16;4975769;28;45317;-46
2022/03/14 10:09:47;;;;;;;;;10.00;9.00;;;;;25.29;30.06;102370.78;4976015;28;45453;-47
2022/03/14 10:12:12;;;;;;;;;11.00;11.00;;;;;24.97;30.43;102380.47;4974693;28;45851;-43
2022/03/14 10:14:38;;;;;;;;;14.25;10.00;;;;;25.02;29.82;102377.97;4974174;28;45201;-48
2022/03/14 10:17:03;;;;;;;;;9.25;8.00;;;;;25.01;32.22;102354.50;4974507;28;45432;-44
2022/03/14 10:19:34;;;;;;;;;11.25;10.00;;;;;25.11;35.45;102360.44;4974683;28;45198;-45
2022/03/14 10:22:18;;;;;;;;;9.20;8.60;;;;;25.16;32.68;102357.97;4974369;28;45531;-44
2022/03/14 10:24:44;;;;;;;;;10.00;7.80;;;;;25.18;33.52;102357.75;4974392;28;45338;-49
2022/03/14 10:27:17;;;;;;;;;7.60;7.60;;;;;25.21;30.65;102360.06;4974442;28;45382;-45
2022/03/14 10:29:45;;;;;;;;;12.75;8.50;;;;;25.31;30.83;102374.13;4989572;28;45391;-43
2022/03/14 10:32:29;;;;;;;;;12.60;9.20;;;;;25.27;30.04;102365.50;4973961;28;46281;-47
2022/03/14 10:34:58;;;;;;;;;8.40;7.40;;;;;25.53;30.89;102364.72;4974157;28;45410;-44
2022/03/14 10:37:27;;;;;;;;;9.20;7.40;;;;;25.69;31.12;102376.31;4974179;28;45712;-46
2022/03/14 10:40:10;;;;;;;;;7.80;6.80;;;;;26.64;32.69;102376.94;4974226;28;45430;-47
2022/03/14 10:42:43;;;;;;;;;6.80;6.60;;;;;28.72;26.74;102385.25;4973931;28;45367;-48
2022/03/14 10:45:18;;;;;;;;;7.40;5.00;;;;;31.16;26.29;102373.28;4973710;28;45307;-45
2022/03/14 10:47:54;;;;;;;;;10.00;10.00;;;;;33.06;21.92;102373.28;4974076;28;45658;-48
2022/03/14 10:50:32;;;;;;;;;5.80;5.80;;;;;34.37;21.08;102366.44;4974097;28;45406;-44
2022/03/14 10:53:08;;;;;;;;;5.20;5.00;;;;;35.24;19.76;102366.81;4973847;28;46892;-44
2022/03/14 10:55:39;;;;;;;;;6.80;6.00;;;;;35.78;18.59;102360.78;4973906;28;45999;-43
2022/03/14 10:58:13;;;;;;;;;8.00;6.40;;;;;36.28;18.21;102358.22;4973879;28;45486;-44
2022/03/14 11:00:53;;;;;;;;;7.00;7.00;;;;;37.13;17.08;102352.66;4977268;28;45256;-44
2022/03/14 11:03:26;;;;;;;;;5.60;4.00;;;;;37.53;16.34;102359.03;4976948;28;45331;-45
2022/03/14 11:05:52;;;;;;;;;7.80;5.20;;;;;38.01;15.56;102350.81;4976847;28;45321;-46
2022/03/14 11:08:25;;;;;;;;;6.20;5.20;;;;;38.38;17.92;102353.75;4976796;28;45366;-45
2022/03/14 11:10:50;;;;;;;;;8.80;4.60;;;;;38.95;15.13;102350.28;4977247;28;45327;-48
2022/03/14 11:13:15;;;;;;;;;10.25;5.00;;;;;38.88;17.23;102354.25;4976577;28;46311;-44
2022/03/14 11:15:41;;;;;;;;;10.75;7.50;;;;;39.16;14.83;102346.88;4976684;28;45175;-45
2022/03/14 11:18:06;;;;;;;;;9.50;7.00;;;;;39.43;16.02;102348.97;4976153;28;45415;-45
2022/03/14 11:20:33;;;;;;;;;8.00;7.25;;;;;39.96;14.65;102347.81;4976990;28;45549;-50
2022/03/14 11:22:59;;;;;;;;;6.80;5.00;;;;;40.25;15.26;102353.13;4976693;28;46339;-45
2022/03/14 11:25:25;;;;;;;;;5.80;5.80;;;;;39.75;14.06;102333.44;4976458;28;45398;-47